Time;durP1;ratioP1;P1;durP2;ratioP2;P2;SDS_P1;SDS_P2;PMS_P1;PMS_P2;Temp;Humidity;BMP_temperature;BMP_pressure;BME280_temperature;BME280_humidity;BME280_pressure;Samples;Min_cycle;Max_cycle;Signal;HPM_P1;HPM_P2
2022/07/23 00:01:58;;;;;;;10.85;9.95;;;26.40;1.00;;;;;;5091917;28;20059;-77
2022/07/23 00:04:23;;;;;;;11.15;9.90;;;26.20;1.00;;;;;;5091801;28;20028;-77
2022/07/23 00:06:49;;;;;;;11.73;10.55;;;26.00;1.00;;;;;;5093051;28;20097;-77
2022/07/23 00:09:14;;;;;;;11.85;10.00;;;25.90;1.00;;;;;;5092517;28;20515;-77
2022/07/23 00:11:40;;;;;;;11.10;10.10;;;26.20;1.00;;;;;;5091582;28;20028;-77
2022/07/23 00:14:06;;;;;;;11.38;10.07;;;26.40;1.00;;;;;;5091509;28;20043;-77
2022/07/23 00:16:31;;;;;;;11.27;10.20;;;26.20;1.00;;;;;;5091753;28;20107;-77
2022/07/23 00:18:57;;;;;;;10.88;9.80;;;26.10;1.00;;;;;;5091958;28;20622;-77
2022/07/23 00:21:22;;;;;;;11.15;10.10;;;25.90;1.00;;;;;;5075394;28;20490;-77
2022/07/23 00:23:48;;;;;;;11.48;9.98;;;25.60;1.00;;;;;;5091311;28;20074;-77
2022/07/23 00:26:14;;;;;;;11.38;10.07;;;25.50;1.00;;;;;;5091114;28;20127;-77
2022/07/23 00:28:39;;;;;;;11.02;10.02;;;25.80;1.00;;;;;;5091410;28;20051;-76
2022/07/23 00:31:05;;;;;;;10.70;9.70;;;25.80;1.00;;;;;;5091388;28;20075;-77
2022/07/23 00:33:31;;;;;;;23.85;12.38;;;25.90;1.00;;;;;;5092448;28;20024;-77
2022/07/23 00:35:56;;;;;;;20.40;13.10;;;26.10;1.00;;;;;;5090807;28;20028;-77
2022/07/23 00:38:22;;;;;;;17.88;13.05;;;25.40;1.00;;;;;;5091055;28;20039;-77
2022/07/23 00:40:47;;;;;;;15.50;13.50;;;25.80;1.00;;;;;;5090890;28;20103;-76
2022/07/23 00:43:13;;;;;;;17.85;13.32;;;25.90;1.00;;;;;;5090398;28;20032;-77
2022/07/23 00:45:39;;;;;;;16.42;13.93;;;24.90;1.00;;;;;;5093128;28;20021;-77
2022/07/23 00:48:04;;;;;;;15.20;13.55;;;24.70;1.00;;;;;;5091080;28;20390;-77
2022/07/23 00:50:30;;;;;;;15.70;14.13;;;24.90;1.00;;;;;;5090659;28;20059;-77
2022/07/23 00:52:56;;;;;;;19.25;14.75;;;25.10;1.00;;;;;;5090817;28;20055;-77
2022/07/23 00:55:21;;;;;;;16.42;13.77;;;25.10;1.00;;;;;;5090786;28;20054;-77
2022/07/23 00:57:47;;;;;;;18.20;14.15;;;25.20;1.00;;;;;;5092753;28;20432;-77
2022/07/23 01:00:14;;;;;;;16.65;14.18;;;24.70;1.00;;;;;;5090093;28;20093;-77
2022/07/23 01:02:40;;;;;;;20.63;14.32;;;24.50;1.00;;;;;;5090709;28;20073;-77
2022/07/23 01:05:06;;;;;;;20.10;14.38;;;24.60;1.00;;;;;;5072418;28;20036;-77
2022/07/23 01:07:33;;;;;;;15.98;14.40;;;24.70;1.00;;;;;;5090550;28;20043;-77
2022/07/23 01:09:59;;;;;;;16.20;13.10;;;24.80;1.00;;;;;;5090687;28;20028;-77
2022/07/23 01:12:24;;;;;;;18.23;15.35;;;24.80;1.00;;;;;;5092759;28;20563;-77
2022/07/23 01:14:55;;;;;;;17.00;15.32;;;24.70;1.00;;;;;;5072429;28;20085;-77
2022/07/23 01:17:20;;;;;;;18.10;15.32;;;24.70;1.00;;;;;;5090308;28;20039;-77
2022/07/23 01:19:46;;;;;;;17.95;16.15;;;24.70;1.00;;;;;;5090203;28;20020;-77
2022/07/23 01:22:11;;;;;;;17.85;16.00;;;24.30;1.00;;;;;;5074369;28;20520;-77
2022/07/23 01:24:37;;;;;;;17.60;15.80;;;24.50;1.00;;;;;;5092403;28;20039;-77
2022/07/23 01:27:05;;;;;;;17.98;16.17;;;24.40;1.00;;;;;;5090006;28;20070;-77
2022/07/23 01:29:30;;;;;;;18.83;16.98;;;24.30;1.00;;;;;;5090330;28;20064;-77
2022/07/23 01:31:56;;;;;;;18.80;16.85;;;24.50;1.00;;;;;;5090154;28;20133;-77
2022/07/23 01:34:22;;;;;;;18.35;16.40;;;24.30;1.00;;;;;;5090003;28;20028;-77
2022/07/23 01:36:47;;;;;;;18.98;17.05;;;24.20;1.00;;;;;;5091502;28;20396;-77
2022/07/23 01:39:13;;;;;;;19.38;17.27;;;24.30;1.00;;;;;;5089455;28;20094;-77
2022/07/23 01:41:39;;;;;;;19.77;17.77;;;24.30;1.00;;;;;;5090351;28;20093;-77
2022/07/23 01:44:04;;;;;;;19.13;17.23;;;24.40;1.00;;;;;;5089340;28;20484;-77
2022/07/23 01:46:30;;;;;;;18.55;16.75;;;24.50;1.00;;;;;;5090327;28;20126;-77
2022/07/23 01:48:56;;;;;;;18.35;16.52;;;24.40;1.00;;;;;;5090270;28;20020;-77
2022/07/23 01:51:21;;;;;;;20.45;17.40;;;24.40;1.00;;;;;;5092016;28;20610;-77
2022/07/23 01:53:47;;;;;;;19.35;17.27;;;24.50;1.00;;;;;;5089823;28;20024;-76
2022/07/23 01:56:14;;;;;;;18.30;16.58;;;24.50;1.00;;;;;;5089873;28;20476;-77
2022/07/23 01:58:40;;;;;;;19.42;17.42;;;24.30;1.00;;;;;;5090042;28;20024;-77
2022/07/23 02:01:06;;;;;;;19.77;17.88;;;24.50;1.00;;;;;;5090063;28;20020;-77
2022/07/23 02:03:32;;;;;;;19.45;17.42;;;24.40;1.00;;;;;;5090574;28;20042;-76
2022/07/23 02:05:57;;;;;;;20.23;18.10;;;24.30;1.00;;;;;;5089653;28;20484;-77
2022/07/23 02:08:23;;;;;;;19.30;17.40;;;24.50;1.00;;;;;;5089717;28;20054;-77
2022/07/23 02:10:51;;;;;;;19.05;17.15;;;24.60;1.00;;;;;;5089824;28;20070;-77
2022/07/23 02:13:16;;;;;;;20.02;17.48;;;24.40;1.00;;;;;;5089925;28;20020;-77
2022/07/23 02:15:43;;;;;;;20.30;17.90;;;24.40;1.00;;;;;;5073853;28;20031;-77
2022/07/23 02:18:08;;;;;;;19.55;17.65;;;24.50;1.00;;;;;;5087999;28;20035;-76
2022/07/23 02:20:34;;;;;;;19.75;17.70;;;24.50;1.00;;;;;;5089926;28;20451;-77
2022/07/23 02:23:00;;;;;;;20.23;18.23;;;24.40;1.00;;;;;;5089607;28;20025;-77
2022/07/23 02:25:26;;;;;;;22.40;19.10;;;24.50;1.00;;;;;;5089660;28;20038;-77
2022/07/23 02:27:51;;;;;;;21.52;18.60;;;24.70;1.00;;;;;;5090554;28;20101;-76
2022/07/23 02:30:17;;;;;;;21.65;19.55;;;24.60;1.00;;;;;;5073018;28;20115;-77
2022/07/23 02:32:43;;;;;;;21.75;19.40;;;24.70;1.00;;;;;;5089138;28;20111;-77
2022/07/23 02:35:08;;;;;;;21.38;19.38;;;24.60;1.00;;;;;;5089473;28;20404;-77
2022/07/23 02:37:34;;;;;;;21.13;19.08;;;24.60;1.00;;;;;;5089571;28;20465;-77
2022/07/23 02:39:59;;;;;;;21.65;18.80;;;24.60;1.00;;;;;;5089635;28;20013;-77
2022/07/23 02:42:26;;;;;;;22.10;19.98;;;24.40;1.00;;;;;;5091836;28;20055;-77
2022/07/23 02:44:52;;;;;;;20.95;18.98;;;24.10;1.00;;;;;;5089329;28;20040;-77
2022/07/23 02:47:18;;;;;;;22.63;20.17;;;24.00;1.00;;;;;;5088831;28;20047;-77
2022/07/23 02:49:43;;;;;;;22.48;20.30;;;24.10;1.00;;;;;;5089611;28;20026;-77
2022/07/23 02:52:12;;;;;;;21.38;19.17;;;24.20;1.00;;;;;;5089242;28;20024;-77
2022/07/23 02:54:38;;;;;;;23.15;20.73;;;24.30;1.00;;;;;;5092461;28;20023;-77
2022/07/23 02:57:04;;;;;;;21.95;19.90;;;24.50;1.00;;;;;;5092419;28;20036;-77
2022/07/23 02:59:30;;;;;;;21.73;19.73;;;24.40;1.00;;;;;;5093082;28;20024;-77
2022/07/23 03:01:55;;;;;;;24.05;19.85;;;24.40;1.00;;;;;;5092798;28;20032;-77
2022/07/23 03:04:21;;;;;;;21.80;19.90;;;24.40;1.00;;;;;;5093398;28;20515;-77
2022/07/23 03:06:47;;;;;;;22.30;20.20;;;24.40;1.00;;;;;;5094161;28;20076;-77
2022/07/23 03:09:12;;;;;;;21.60;19.50;;;24.30;1.00;;;;;;5093836;28;20054;-77
2022/07/23 03:11:38;;;;;;;22.27;19.95;;;24.20;1.00;;;;;;5092849;28;20036;-77
2022/07/23 03:14:03;;;;;;;20.75;18.55;;;24.20;1.00;;;;;;5092633;28;20019;-76
2022/07/23 03:16:29;;;;;;;21.00;19.10;;;24.10;1.00;;;;;;5092740;28;20028;-77
2022/07/23 03:18:55;;;;;;;21.92;20.13;;;24.20;1.00;;;;;;5094184;28;20024;-77
2022/07/23 03:21:20;;;;;;;21.00;18.58;;;24.20;1.00;;;;;;5092435;28;20081;-77
2022/07/23 03:23:46;;;;;;;21.00;18.95;;;24.30;1.00;;;;;;5092575;28;20020;-77
2022/07/23 03:26:11;;;;;;;20.45;18.48;;;24.10;1.00;;;;;;5092329;28;20032;-77
2022/07/23 03:28:37;;;;;;;20.52;18.42;;;24.10;1.00;;;;;;5092900;28;20044;-77
2022/07/23 03:31:02;;;;;;;19.60;17.80;;;24.10;1.00;;;;;;5092322;28;20396;-76
2022/07/23 03:33:28;;;;;;;20.38;18.23;;;23.70;1.00;;;;;;5094703;28;20086;-77
2022/07/23 03:35:54;;;;;;;19.60;17.45;;;23.80;1.00;;;;;;5090910;28;20055;-77
2022/07/23 03:38:19;;;;;;;17.35;15.85;;;23.90;1.00;;;;;;5092212;28;20032;-76
2022/07/23 03:40:45;;;;;;;16.30;14.80;;;24.00;1.00;;;;;;5092320;28;20102;-77
2022/07/23 03:43:11;;;;;;;15.48;13.98;;;24.00;1.00;;;;;;5092395;28;20025;-77
2022/07/23 03:45:36;;;;;;;16.15;14.65;;;24.00;1.00;;;;;;5093887;28;20027;-77
2022/07/23 03:48:02;;;;;;;16.38;14.85;;;24.00;1.00;;;;;;5092131;28;20450;-77
2022/07/23 03:50:28;;;;;;;16.15;14.57;;;23.90;1.00;;;;;;5092173;28;20028;-77
2022/07/23 03:52:53;;;;;;;16.20;14.55;;;23.90;1.00;;;;;;5091899;28;20081;-77
2022/07/23 03:55:19;;;;;;;15.88;14.23;;;23.80;1.00;;;;;;5092050;28;20024;-77
2022/07/23 03:57:45;;;;;;;15.73;14.27;;;23.80;1.00;;;;;;5093821;28;20039;-77
2022/07/23 04:00:12;;;;;;;16.23;14.77;;;23.70;1.00;;;;;;5090344;28;20035;-77
2022/07/23 04:02:38;;;;;;;17.15;15.48;;;23.60;1.00;;;;;;5092161;28;20491;-75
2022/07/23 04:05:05;;;;;;;16.40;14.95;;;23.60;1.00;;;;;;5091734;28;20027;-77
2022/07/23 04:07:31;;;;;;;17.23;15.63;;;23.60;1.00;;;;;;5090990;28;20040;-77
2022/07/23 04:09:56;;;;;;;15.82;14.32;;;23.50;1.00;;;;;;5092179;28;20137;-77
2022/07/23 04:12:23;;;;;;;17.77;16.08;;;23.60;1.00;;;;;;5093679;28;20032;-76
2022/07/23 04:14:49;;;;;;;17.55;15.88;;;23.50;1.00;;;;;;5071542;28;20036;-77
2022/07/23 04:17:14;;;;;;;17.17;15.40;;;23.40;1.00;;;;;;5091305;28;20377;-77
2022/07/23 04:19:43;;;;;;;16.40;14.90;;;23.40;1.00;;;;;;5091806;28;20059;-77
2022/07/23 04:22:09;;;;;;;16.55;15.05;;;23.30;1.00;;;;;;5091623;28;20028;-77
2022/07/23 04:24:35;;;;;;;16.40;14.93;;;23.30;1.00;;;;;;5093471;28;20114;-77
2022/07/23 04:27:00;;;;;;;16.55;14.88;;;23.30;1.00;;;;;;5091621;28;20035;-77
2022/07/23 04:29:26;;;;;;;16.95;14.48;;;23.40;1.00;;;;;;5090710;28;20050;-77
2022/07/23 04:31:52;;;;;;;15.52;14.10;;;23.30;1.00;;;;;;5091494;28;20058;-77
2022/07/23 04:34:18;;;;;;;15.63;14.23;;;23.30;1.00;;;;;;5091247;28;20553;-77
2022/07/23 04:36:43;;;;;;;16.10;14.70;;;23.40;1.00;;;;;;5092964;28;20500;-77
2022/07/23 04:39:09;;;;;;;15.10;13.80;;;23.30;1.00;;;;;;5090187;28;20039;-77
2022/07/23 04:41:35;;;;;;;15.95;14.30;;;23.30;1.00;;;;;;5089145;28;20028;-77
2022/07/23 04:44:01;;;;;;;16.15;14.75;;;23.30;1.00;;;;;;5090468;28;20059;-77
2022/07/23 04:46:27;;;;;;;15.88;14.27;;;23.30;1.00;;;;;;5090943;28;20054;-75
2022/07/23 04:48:53;;;;;;;15.32;13.77;;;23.30;1.00;;;;;;5091504;28;20470;-77
2022/07/23 04:51:19;;;;;;;15.30;13.80;;;23.20;1.00;;;;;;5091828;28;20048;-78
2022/07/23 04:53:44;;;;;;;15.30;13.80;;;23.30;1.00;;;;;;5089817;28;20115;-79
2022/07/23 04:56:10;;;;;;;15.00;13.80;;;23.30;1.00;;;;;;5090628;28;20055;-78
2022/07/23 04:58:36;;;;;;;14.82;13.43;;;23.30;1.00;;;;;;5090551;28;20028;-78
2022/07/23 05:01:02;;;;;;;15.23;13.77;;;23.40;1.00;;;;;;5091155;28;20024;-78
2022/07/23 05:03:28;;;;;;;15.73;14.23;;;23.60;1.00;;;;;;5092892;28;20112;-78
2022/07/23 05:05:53;;;;;;;14.20;12.80;;;23.40;1.00;;;;;;5090631;28;20028;-78
2022/07/23 05:08:19;;;;;;;14.15;12.90;;;23.40;1.00;;;;;;5091240;28;20500;-79
2022/07/23 05:10:45;;;;;;;14.55;13.35;;;23.30;1.00;;;;;;5090468;28;20024;-78
2022/07/23 05:13:10;;;;;;;14.25;13.07;;;23.30;1.00;;;;;;5074633;28;20028;-78
2022/07/23 05:15:36;;;;;;;14.13;12.88;;;23.40;1.00;;;;;;5092415;28;20039;-78
2022/07/23 05:18:02;;;;;;;13.73;12.52;;;23.40;1.00;;;;;;5090252;28;20069;-79
2022/07/23 05:20:28;;;;;;;14.30;13.10;;;23.40;1.00;;;;;;5090528;28;20373;-78
2022/07/23 05:22:54;;;;;;;15.18;13.60;;;23.40;1.00;;;;;;5090606;28;20018;-79
2022/07/23 05:25:19;;;;;;;18.45;14.23;;;23.60;1.00;;;;;;5090485;28;20035;-79
2022/07/23 05:27:45;;;;;;;14.55;13.02;;;23.70;1.00;;;;;;5091760;28;20480;-79
2022/07/23 05:30:11;;;;;;;17.35;13.23;;;23.80;1.00;;;;;;5089204;28;20048;-79
2022/07/23 05:32:37;;;;;;;14.65;13.15;;;23.80;1.00;;;;;;5088635;28;20032;-79
2022/07/23 05:35:06;;;;;;;15.68;14.18;;;23.80;1.00;;;;;;5090390;28;20028;-79
2022/07/23 05:37:32;;;;;;;14.93;13.52;;;23.70;1.00;;;;;;5090135;28;20038;-79
2022/07/23 05:40:07;;;;;;;16.65;14.95;;;23.90;1.00;;;;;;5089513;28;20024;-78
2022/07/23 05:42:33;;;;;;;15.65;14.15;;;24.00;1.00;;;;;;5092294;28;20020;-79
2022/07/23 05:44:59;;;;;;;16.20;14.63;;;24.00;1.00;;;;;;5090081;28;20395;-77
2022/07/23 05:47:24;;;;;;;16.63;15.02;;;23.90;1.00;;;;;;5089788;28;20040;-77
2022/07/23 05:49:50;;;;;;;17.00;15.40;;;24.00;1.00;;;;;;5089850;28;20446;-77
2022/07/23 05:52:16;;;;;;;16.85;15.00;;;23.90;1.00;;;;;;5090235;28;20024;-77
2022/07/23 05:54:41;;;;;;;17.60;15.85;;;24.10;1.00;;;;;;5091773;28;20066;-77
2022/07/23 05:57:07;;;;;;;17.10;15.55;;;24.20;1.00;;;;;;5089720;28;20036;-77
2022/07/23 05:59:33;;;;;;;17.38;15.85;;;24.20;1.00;;;;;;5089559;28;20027;-78
2022/07/23 06:01:58;;;;;;;17.00;15.15;;;24.30;1.00;;;;;;5089293;28;20123;-77
2022/07/23 06:04:24;;;;;;;17.45;15.77;;;24.20;1.00;;;;;;5089821;28;20480;-77
2022/07/23 06:06:50;;;;;;;15.52;14.20;;;24.20;1.00;;;;;;5090945;28;20039;-77
2022/07/23 06:09:15;;;;;;;16.10;14.60;;;24.20;1.00;;;;;;5090809;28;20028;-77
2022/07/23 06:11:41;;;;;;;14.63;13.23;;;24.30;1.00;;;;;;5088149;28;20028;-77
2022/07/23 06:14:06;;;;;;;13.68;12.38;;;24.30;1.00;;;;;;5089521;28;20030;-77
2022/07/23 06:16:32;;;;;;;13.93;12.73;;;24.50;1.00;;;;;;5089795;28;20032;-77
2022/07/23 06:18:58;;;;;;;14.32;13.00;;;24.50;1.00;;;;;;5089650;28;20488;-77
2022/07/23 06:21:23;;;;;;;14.43;12.93;;;24.50;1.00;;;;;;5091864;28;20430;-77
2022/07/23 06:23:49;;;;;;;14.10;12.80;;;24.40;1.00;;;;;;5089342;28;20477;-76
2022/07/23 06:26:15;;;;;;;13.95;12.45;;;24.40;1.00;;;;;;5089143;28;20036;-77
2022/07/23 06:28:40;;;;;;;13.75;12.63;;;24.30;1.00;;;;;;5089762;28;20423;-77
2022/07/23 06:31:06;;;;;;;13.85;12.63;;;24.40;1.00;;;;;;5093140;28;20116;-77
2022/07/23 06:33:33;;;;;;;15.48;13.88;;;24.50;1.00;;;;;;5095732;28;20380;-77
2022/07/23 06:35:59;;;;;;;15.13;13.82;;;24.50;1.00;;;;;;5093356;28;20122;-77
2022/07/23 06:38:24;;;;;;;14.63;13.40;;;24.40;1.00;;;;;;5093435;28;20044;-77
2022/07/23 06:40:50;;;;;;;14.50;13.10;;;24.30;1.00;;;;;;5093396;28;20024;-77
2022/07/23 06:43:16;;;;;;;14.30;12.95;;;24.50;1.00;;;;;;5093404;28;20513;-77
2022/07/23 06:45:41;;;;;;;13.55;12.25;;;24.60;1.00;;;;;;5095581;28;20020;-77
2022/07/23 06:48:07;;;;;;;13.60;12.40;;;24.90;1.00;;;;;;5093064;28;20040;-77
2022/07/23 06:50:33;;;;;;;14.77;13.43;;;25.00;1.00;;;;;;5073894;28;20051;-77
2022/07/23 06:52:58;;;;;;;15.60;13.25;;;25.00;1.00;;;;;;5093738;28;20032;-78
2022/07/23 06:55:24;;;;;;;13.57;12.20;;;25.10;1.00;;;;;;5093224;28;20032;-77
2022/07/23 06:57:49;;;;;;;14.40;12.90;;;25.10;1.00;;;;;;5094686;28;20111;-77
2022/07/23 07:00:15;;;;;;;13.93;12.60;;;25.10;1.00;;;;;;5093942;28;20028;-77
2022/07/23 07:02:41;;;;;;;13.48;12.07;;;25.10;1.00;;;;;;5092898;28;20024;-77
2022/07/23 07:05:07;;;;;;;12.98;11.75;;;25.10;1.00;;;;;;5092890;28;20024;-77
2022/07/23 07:07:33;;;;;;;13.65;11.93;;;25.00;1.00;;;;;;5092580;28;20028;-77
2022/07/23 07:09:59;;;;;;;13.52;12.38;;;25.30;1.00;;;;;;5092858;28;20487;-77
2022/07/23 07:12:24;;;;;;;13.25;12.05;;;25.20;1.00;;;;;;5095160;28;20077;-77
2022/07/23 07:14:50;;;;;;;13.98;12.57;;;25.20;1.00;;;;;;5092618;28;20063;-77
2022/07/23 07:17:16;;;;;;;13.07;11.98;;;25.10;1.00;;;;;;5092728;28;20024;-77
2022/07/23 07:19:42;;;;;;;12.32;11.25;;;25.20;1.00;;;;;;5092784;28;20036;-77
2022/07/23 07:22:07;;;;;;;13.32;12.07;;;25.40;1.00;;;;;;5092790;28;20557;-77
2022/07/23 07:24:33;;;;;;;12.80;11.63;;;25.50;1.00;;;;;;5094649;28;20024;-77
2022/07/23 07:26:58;;;;;;;12.75;11.65;;;25.70;1.00;;;;;;5092152;28;20419;-77
2022/07/23 07:29:24;;;;;;;13.00;11.80;;;25.70;1.00;;;;;;5090787;28;20512;-77
2022/07/23 07:31:50;;;;;;;12.85;11.63;;;25.70;1.00;;;;;;5092940;28;20035;-78
2022/07/23 07:34:15;;;;;;;12.77;11.52;;;25.60;1.00;;;;;;5092554;28;20031;-77
2022/07/23 07:36:42;;;;;;;12.80;11.52;;;25.50;1.00;;;;;;5094241;28;20077;-77
2022/07/23 07:39:10;;;;;;;12.82;11.52;;;25.60;1.00;;;;;;5091144;28;20024;-77
2022/07/23 07:41:36;;;;;;;12.25;11.07;;;25.70;1.00;;;;;;5090812;28;20399;-77
2022/07/23 07:44:02;;;;;;;12.57;11.43;;;25.70;1.00;;;;;;5092062;28;20561;-77
2022/07/23 07:46:27;;;;;;;12.30;11.13;;;25.80;1.00;;;;;;5092516;28;20115;-77
2022/07/23 07:48:53;;;;;;;12.80;11.60;;;26.00;1.00;;;;;;5092808;28;20392;-77
2022/07/23 07:51:19;;;;;;;12.00;10.90;;;26.10;1.00;;;;;;5093105;28;20327;-76
2022/07/23 07:53:45;;;;;;;11.77;10.77;;;26.20;1.00;;;;;;5091652;28;20514;-77
2022/07/23 07:56:10;;;;;;;12.18;11.07;;;26.30;1.00;;;;;;5092104;28;20020;-77
2022/07/23 07:58:36;;;;;;;12.73;11.45;;;26.30;1.00;;;;;;5092061;28;20090;-77
2022/07/23 08:01:02;;;;;;;13.57;12.18;;;26.30;1.00;;;;;;5091773;28;20024;-77
2022/07/23 08:03:28;;;;;;;12.77;11.65;;;26.60;1.00;;;;;;5093826;28;20028;-77
2022/07/23 08:05:53;;;;;;;15.07;12.65;;;26.90;1.00;;;;;;5091375;28;20089;-77
2022/07/23 08:08:19;;;;;;;12.95;11.73;;;26.90;1.00;;;;;;5090139;28;20079;-77
2022/07/23 08:10:45;;;;;;;15.02;11.98;;;27.10;1.00;;;;;;5091631;28;20111;-77
2022/07/23 08:13:14;;;;;;;13.05;11.75;;;26.80;1.00;;;;;;5092024;28;20523;-77
2022/07/23 08:15:40;;;;;;;13.80;12.30;;;26.90;1.00;;;;;;5089391;28;20031;-77
2022/07/23 08:18:06;;;;;;;13.40;12.30;;;26.80;1.00;;;;;;5091462;28;20028;-77
2022/07/23 08:20:32;;;;;;;13.18;11.98;;;26.70;1.00;;;;;;5091257;28;20514;-77
2022/07/23 08:23:02;;;;;;;13.13;12.00;;;26.80;1.00;;;;;;5091162;28;21474;-77
2022/07/23 08:25:33;;;;;;;13.07;11.32;;;26.90;1.00;;;;;;5091129;28;20036;-77
2022/07/23 08:28:00;;;;;;;12.40;11.13;;;27.00;1.00;;;;;;5091546;28;20290;-77
2022/07/23 08:30:27;;;;;;;12.90;11.45;;;27.30;1.00;;;;;;5093214;28;20043;-77
2022/07/23 08:33:02;;;;;;;12.45;11.25;;;27.30;1.00;;;;;;5091136;28;20496;-77
2022/07/23 08:35:33;;;;;;;12.77;11.48;;;27.00;1.00;;;;;;5091154;28;20024;-77
2022/07/23 08:38:02;;;;;;;12.00;10.73;;;27.10;1.00;;;;;;5091297;28;20020;-77
2022/07/23 08:40:30;;;;;;;12.45;11.30;;;27.40;1.00;;;;;;5091162;28;20028;-77
2022/07/23 08:42:56;;;;;;;12.05;10.88;;;27.30;1.00;;;;;;5091285;28;20115;-77
2022/07/23 08:45:24;;;;;;;11.95;10.85;;;27.60;1.00;;;;;;5092774;28;20488;-77
2022/07/23 08:47:55;;;;;;;12.23;11.25;;;27.80;1.00;;;;;;5089816;28;20035;-77
2022/07/23 08:50:22;;;;;;;11.43;10.40;;;28.00;1.00;;;;;;5090607;28;20051;-77
2022/07/23 08:52:52;;;;;;;13.13;11.05;;;28.00;1.00;;;;;;5090300;28;20028;-77
2022/07/23 08:55:20;;;;;;;13.18;11.10;;;28.40;1.00;;;;;;5090590;28;20024;-77
2022/07/23 08:57:48;;;;;;;14.20;11.85;;;28.20;1.00;;;;;;5092118;28;20035;-78
2022/07/23 09:00:15;;;;;;;12.30;11.05;;;28.40;1.00;;;;;;5089841;28;20012;-78
2022/07/23 09:02:42;;;;;;;12.38;11.38;;;28.60;1.00;;;;;;5090483;28;20085;-78
2022/07/23 09:05:13;;;;;;;12.30;11.15;;;28.50;1.00;;;;;;5090302;28;20012;-78
2022/07/23 09:08:11;;;;;;;10.45;9.48;;;28.60;1.00;;;;;;5090412;28;20126;-78
2022/07/23 09:10:51;;;;;;;12.65;11.45;;;28.90;1.00;;;;;;5077862;28;20055;-78
2022/07/23 09:13:33;;;;;;;11.75;10.57;;;28.50;1.00;;;;;;5075322;28;20111;-78
2022/07/23 09:16:08;;;;;;;11.43;10.30;;;28.40;1.00;;;;;;5090710;28;20028;-78
2022/07/23 09:18:43;;;;;;;11.30;10.23;;;28.50;1.00;;;;;;5092167;28;20106;-79
2022/07/23 09:21:16;;;;;;;11.55;10.45;;;28.80;1.00;;;;;;5089155;28;20084;-79
2022/07/23 09:23:49;;;;;;;11.95;10.75;;;28.90;1.00;;;;;;5089727;28;20024;-79
2022/07/23 09:26:19;;;;;;;11.73;10.70;;;28.80;1.00;;;;;;5088915;28;20059;-78
2022/07/23 09:28:55;;;;;;;12.60;10.60;;;28.80;1.00;;;;;;5089748;28;20082;-78
2022/07/23 09:31:22;;;;;;;10.98;9.98;;;28.90;1.00;;;;;;5075297;28;20016;-78
2022/07/23 09:33:48;;;;;;;13.30;10.30;;;28.80;1.00;;;;;;5091052;28;20380;-78
2022/07/23 09:36:14;;;;;;;11.23;10.15;;;29.30;1.00;;;;;;5090995;28;20028;-78
2022/07/23 09:38:50;;;;;;;11.50;10.30;;;29.80;1.00;;;;;;5089578;28;20032;-78
2022/07/23 09:41:16;;;;;;;11.35;10.27;;;30.40;1.00;;;;;;5090143;28;20024;-78
2022/07/23 09:43:42;;;;;;;11.57;10.57;;;30.20;1.00;;;;;;5089662;28;20110;-78
2022/07/23 09:46:27;;;;;;;11.80;10.65;;;29.60;1.00;;;;;;5090095;28;20365;-77
2022/07/23 09:48:56;;;;;;;11.60;10.35;;;30.10;1.00;;;;;;5088340;28;20039;-78
2022/07/23 09:53:54;;;;;;;11.68;10.57;;;29.90;1.00;;;;;;5089887;28;20028;-78
2022/07/23 09:56:21;;;;;;;11.50;10.40;;;29.60;1.00;;;;;;5089606;28;20459;-78
2022/07/23 09:59:02;;;;;;;10.93;10.02;;;29.30;1.00;;;;;;5089990;28;20031;-78
2022/07/23 10:01:29;;;;;;;10.40;9.50;;;30.30;1.00;;;;;;5075513;28;20032;-78
2022/07/23 10:03:55;;;;;;;12.35;10.10;;;30.90;1.00;;;;;;5089545;28;20032;-78
2022/07/23 10:06:21;;;;;;;11.40;10.20;;;31.90;1.00;;;;;;5091109;28;20222;-78
2022/07/23 10:08:49;;;;;;;11.07;10.00;;;32.10;1.00;;;;;;5089267;28;20107;-78
2022/07/23 10:11:16;;;;;;;11.90;10.80;;;32.10;1.00;;;;;;5089790;28;20040;-79
2022/07/23 10:13:55;;;;;;;10.40;9.60;;;31.50;1.00;;;;;;5089703;28;20020;-80
2022/07/23 10:16:22;;;;;;;11.40;10.10;;;31.80;1.00;;;;;;5072719;28;20031;-79
2022/07/23 10:18:48;;;;;;;11.20;10.20;;;31.50;1.00;;;;;;5071244;28;20032;-84
2022/07/23 10:21:24;;;;;;;11.25;10.15;;;30.80;1.00;;;;;;5074389;28;20017;-77
2022/07/23 10:24:05;;;;;;;11.13;10.10;;;30.20;1.00;;;;;;5069868;28;20068;-79
2022/07/23 10:26:45;;;;;;;10.60;9.57;;;30.30;1.00;;;;;;5085668;28;20048;-80
2022/07/23 10:29:34;;;;;;;10.35;9.45;;;31.00;1.00;;;;;;5088255;28;20094;-80
2022/07/23 10:32:23;;;;;;;10.70;9.70;;;31.30;1.00;;;;;;5084853;28;20428;-78
2022/07/23 10:35:07;;;;;;;10.18;9.27;;;31.00;1.00;;;;;;5067354;28;20043;-78
2022/07/23 10:37:40;;;;;;;10.50;9.70;;;31.20;1.00;;;;;;5073853;28;20077;-79
2022/07/23 10:40:18;;;;;;;10.48;9.48;;;32.20;1.00;;;;;;5071541;28;20028;-78
2022/07/23 10:42:45;;;;;;;10.40;9.43;;;32.30;1.00;;;;;;5087783;28;20024;-79
2022/07/23 10:45:34;;;;;;;10.02;9.18;;;32.60;1.00;;;;;;5084714;28;20491;-79
2022/07/23 10:48:15;;;;;;;10.68;9.68;;;32.60;1.00;;;;;;5077022;28;20040;-78
2022/07/23 10:50:43;;;;;;;10.73;9.73;;;32.50;1.00;;;;;;5075403;28;20024;-79
2022/07/23 10:53:17;;;;;;;10.70;9.63;;;32.00;1.00;;;;;;5075713;28;20396;-79
2022/07/23 10:55:49;;;;;;;10.63;9.55;;;31.70;1.00;;;;;;5075390;28;20020;-79
2022/07/23 10:58:22;;;;;;;10.93;9.57;;;31.70;1.00;;;;;;5070600;28;20024;-79
2022/07/23 11:00:48;;;;;;;10.02;9.05;;;31.90;1.00;;;;;;5085583;28;20115;-79
2022/07/23 11:03:40;;;;;;;11.63;9.93;;;32.20;1.00;;;;;;5084913;28;20441;-80
2022/07/23 11:06:06;;;;;;;10.00;9.10;;;32.30;1.00;;;;;;5080460;28;20548;-81
2022/07/23 11:08:33;;;;;;;9.82;8.90;;;32.50;1.00;;;;;;5080513;28;20036;-85
2022/07/23 11:11:01;;;;;;;9.80;8.90;;;33.00;1.00;;;;;;5075526;28;20396;-80
2022/07/23 11:13:32;;;;;;;9.75;8.80;;;33.10;1.00;;;;;;5072009;28;20032;-80
2022/07/23 11:16:01;;;;;;;10.30;9.40;;;32.50;1.00;;;;;;5074033;28;20044;-79
2022/07/23 11:18:42;;;;;;;11.20;10.10;;;32.80;1.00;;;;;;5078380;28;20036;-80
2022/07/23 11:21:23;;;;;;;11.80;9.55;;;32.50;1.00;;;;;;5100151;28;20054;-79
2022/07/23 11:24:03;;;;;;;10.20;9.20;;;32.40;1.00;;;;;;5090854;28;20085;-79
2022/07/23 11:26:41;;;;;;;12.00;9.48;;;32.50;1.00;;;;;;5091111;28;20047;-79
2022/07/23 11:29:40;;;;;;;10.60;9.60;;;32.70;1.00;;;;;;5091654;28;20043;-79
2022/07/23 11:32:19;;;;;;;10.10;9.10;;;32.70;1.00;;;;;;5028357;28;20045;-80
2022/07/23 11:34:46;;;;;;;10.25;9.25;;;32.70;1.00;;;;;;5028130;28;20064;-79
2022/07/23 11:37:46;;;;;;;10.15;9.15;;;33.30;1.00;;;;;;5015542;28;20032;-80
2022/07/23 11:40:14;;;;;;;9.73;8.80;;;33.90;1.00;;;;;;5031318;28;20104;-79
2022/07/23 11:42:55;;;;;;;10.13;9.13;;;33.20;1.00;;;;;;5017410;28;20037;-79
2022/07/23 11:45:22;;;;;;;9.77;8.77;;;34.30;1.00;;;;;;5033397;28;20130;-79
2022/07/23 11:47:47;;;;;;;9.70;8.80;;;35.70;1.00;;;;;;5025604;28;20132;-79
2022/07/23 11:50:13;;;;;;;9.65;8.82;;;37.40;1.00;;;;;;5030760;28;20108;-79
2022/07/23 11:52:39;;;;;;;9.68;8.77;;;36.90;1.00;;;;;;5029609;28;20033;-80
2022/07/23 11:55:08;;;;;;;9.85;9.10;;;35.30;1.00;;;;;;5030067;28;20084;-80
2022/07/23 11:57:36;;;;;;;9.25;8.48;;;34.50;1.00;;;;;;5030595;28;20025;-79
2022/07/23 12:00:11;;;;;;;9.65;8.85;;;33.70;1.00;;;;;;5027907;28;20449;-79
2022/07/23 12:02:38;;;;;;;12.65;11.30;;;32.80;1.00;;;;;;5027458;28;20112;-79
2022/07/23 12:05:05;;;;;;;11.50;10.40;;;32.20;1.00;;;;;;5026849;28;20021;-80
2022/07/23 12:07:35;;;;;;;10.48;9.48;;;32.40;1.00;;;;;;5054116;28;20527;-79
2022/07/23 12:10:11;;;;;;;10.50;9.60;;;32.30;1.00;;;;;;5099382;28;20081;-79
2022/07/23 12:12:39;;;;;;;10.30;9.30;;;33.20;1.00;;;;;;5079452;28;20051;-79
2022/07/23 12:15:07;;;;;;;9.93;8.93;;;34.30;1.00;;;;;;5094589;28;20110;-79
2022/07/23 12:17:36;;;;;;;10.45;9.38;;;35.90;1.00;;;;;;5091389;28;20051;-79
2022/07/23 12:20:05;;;;;;;10.10;9.10;;;38.10;1.00;;;;;;5084646;28;20089;-78
2022/07/23 12:22:42;;;;;;;9.90;9.05;;;39.40;1.00;;;;;;5103974;28;20020;-79
2022/07/23 12:25:19;;;;;;;9.98;9.07;;;39.00;1.00;;;;;;5095719;28;20040;-79
2022/07/23 12:27:46;;;;;;;10.40;9.40;;;39.80;1.00;;;;;;5087633;28;20123;-79
2022/07/23 12:30:41;;;;;;;9.88;9.00;;;38.30;1.00;;;;;;5083420;28;20508;-79
2022/07/23 12:33:09;;;;;;;9.80;8.90;;;37.80;1.00;;;;;;5084479;28;20484;-79
2022/07/23 12:35:41;;;;;;;9.32;8.52;;;38.70;1.00;;;;;;5091801;28;20031;-78
2022/07/23 12:38:10;;;;;;;9.32;8.40;;;37.70;1.00;;;;;;5093039;28;20020;-80
2022/07/23 12:40:47;;;;;;;9.15;8.27;;;38.60;1.00;;;;;;5088822;28;20527;-81
2022/07/23 12:43:21;;;;;;;8.98;8.07;;;39.80;1.00;;;;;;5080847;28;20078;-80
2022/07/23 12:45:50;;;;;;;9.40;8.50;;;39.00;1.00;;;;;;5096061;28;20019;-79
2022/07/23 12:48:26;;;;;;;9.15;8.35;;;40.20;1.00;;;;;;5094929;28;20067;-80